sensor_id;sensor_type;location;lat;lon;timestamp;P1;durP1;ratioP1;P2;durP2;ratioP2
11298;SDS011;5705;49.006;12.100;2022-08-16T00:01:53;2.27;;;2.10;;
11298;SDS011;5705;49.006;12.100;2022-08-16T00:04:21;3.10;;;1.90;;
11298;SDS011;5705;49.006;12.100;2022-08-16T00:06:53;2.17;;;2.00;;
11298;SDS011;5705;49.006;12.100;2022-08-16T00:09:20;2.83;;;2.00;;
11298;SDS011;5705;49.006;12.100;2022-08-16T00:11:48;2.30;;;1.90;;
11298;SDS011;5705;49.006;12.100;2022-08-16T00:14:21;2.40;;;2.17;;
11298;SDS011;5705;49.006;12.100;2022-08-16T00:16:56;4.83;;;2.30;;
11298;SDS011;5705;49.006;12.100;2022-08-16T00:19:43;2.20;;;2.10;;
11298;SDS011;5705;49.006;12.100;2022-08-16T00:22:12;3.73;;;2.20;;
11298;SDS011;5705;49.006;12.100;2022-08-16T00:24:41;2.57;;;2.20;;
11298;SDS011;5705;49.006;12.100;2022-08-16T00:27:12;2.17;;;2.03;;
11298;SDS011;5705;49.006;12.100;2022-08-16T00:29:40;2.07;;;1.97;;
11298;SDS011;5705;49.006;12.100;2022-08-16T00:32:10;2.40;;;2.10;;
11298;SDS011;5705;49.006;12.100;2022-08-16T00:34:43;2.60;;;2.40;;
11298;SDS011;5705;49.006;12.100;2022-08-16T00:37:20;2.53;;;2.33;;
11298;SDS011;5705;49.006;12.100;2022-08-16T00:39:50;2.47;;;2.27;;
11298;SDS011;5705;49.006;12.100;2022-08-16T00:42:24;3.33;;;2.20;;
11298;SDS011;5705;49.006;12.100;2022-08-16T00:45:03;3.23;;;2.80;;
11298;SDS011;5705;49.006;12.100;2022-08-16T00:47:36;3.70;;;2.60;;
11298;SDS011;5705;49.006;12.100;2022-08-16T00:50:14;2.40;;;2.20;;
11298;SDS011;5705;49.006;12.100;2022-08-16T00:52:43;2.50;;;2.30;;
11298;SDS011;5705;49.006;12.100;2022-08-16T00:55:17;2.60;;;2.40;;
11298;SDS011;5705;49.006;12.100;2022-08-16T00:57:47;1.87;;;1.77;;
11298;SDS011;5705;49.006;12.100;2022-08-16T01:00:26;2.60;;;2.40;;
11298;SDS011;5705;49.006;12.100;2022-08-16T01:02:55;3.37;;;2.50;;
11298;SDS011;5705;49.006;12.100;2022-08-16T01:05:24;2.73;;;2.10;;
11298;SDS011;5705;49.006;12.100;2022-08-16T01:07:53;2.80;;;2.47;;
11298;SDS011;5705;49.006;12.100;2022-08-16T01:10:25;2.30;;;2.10;;
11298;SDS011;5705;49.006;12.100;2022-08-16T01:12:58;3.50;;;2.00;;
11298;SDS011;5705;49.006;12.100;2022-08-16T01:15:30;3.07;;;2.77;;
11298;SDS011;5705;49.006;12.100;2022-08-16T01:17:59;2.33;;;2.23;;
11298;SDS011;5705;49.006;12.100;2022-08-16T01:20:27;3.47;;;2.50;;
11298;SDS011;5705;49.006;12.100;2022-08-16T01:23:01;3.37;;;2.47;;
11298;SDS011;5705;49.006;12.100;2022-08-16T01:25:36;2.63;;;2.43;;
11298;SDS011;5705;49.006;12.100;2022-08-16T01:28:10;3.10;;;2.70;;
11298;SDS011;5705;49.006;12.100;2022-08-16T01:30:48;3.43;;;2.57;;
11298;SDS011;5705;49.006;12.100;2022-08-16T01:33:18;2.43;;;2.23;;
11298;SDS011;5705;49.006;12.100;2022-08-16T01:35:49;2.43;;;2.23;;
11298;SDS011;5705;49.006;12.100;2022-08-16T01:38:22;2.77;;;2.57;;
11298;SDS011;5705;49.006;12.100;2022-08-16T01:40:56;2.47;;;2.37;;
11298;SDS011;5705;49.006;12.100;2022-08-16T01:43:28;2.50;;;2.40;;
11298;SDS011;5705;49.006;12.100;2022-08-16T01:45:57;2.30;;;2.20;;
11298;SDS011;5705;49.006;12.100;2022-08-16T01:48:46;2.73;;;2.53;;
11298;SDS011;5705;49.006;12.100;2022-08-16T01:51:15;2.30;;;2.10;;
11298;SDS011;5705;49.006;12.100;2022-08-16T01:53:44;2.47;;;2.27;;
11298;SDS011;5705;49.006;12.100;2022-08-16T01:56:22;2.83;;;2.63;;
11298;SDS011;5705;49.006;12.100;2022-08-16T01:58:52;3.67;;;3.03;;
11298;SDS011;5705;49.006;12.100;2022-08-16T02:01:22;3.57;;;3.27;;
11298;SDS011;5705;49.006;12.100;2022-08-16T02:03:53;6.70;;;3.10;;
11298;SDS011;5705;49.006;12.100;2022-08-16T02:06:24;4.73;;;3.47;;
11298;SDS011;5705;49.006;12.100;2022-08-16T02:09:01;5.53;;;3.33;;
11298;SDS011;5705;49.006;12.100;2022-08-16T02:11:32;5.00;;;4.50;;
11298;SDS011;5705;49.006;12.100;2022-08-16T02:14:18;5.10;;;4.60;;
11298;SDS011;5705;49.006;12.100;2022-08-16T02:16:51;3.40;;;3.10;;
11298;SDS011;5705;49.006;12.100;2022-08-16T02:19:21;3.77;;;3.43;;
11298;SDS011;5705;49.006;12.100;2022-08-16T02:22:10;4.30;;;3.90;;
11298;SDS011;5705;49.006;12.100;2022-08-16T02:24:59;4.40;;;4.00;;
11298;SDS011;5705;49.006;12.100;2022-08-16T02:27:28;4.70;;;4.00;;
11298;SDS011;5705;49.006;12.100;2022-08-16T02:29:56;7.37;;;6.67;;
11298;SDS011;5705;49.006;12.100;2022-08-16T02:32:31;4.90;;;4.20;;
11298;SDS011;5705;49.006;12.100;2022-08-16T02:35:20;6.90;;;6.20;;
11298;SDS011;5705;49.006;12.100;2022-08-16T02:37:49;5.57;;;3.97;;
11298;SDS011;5705;49.006;12.100;2022-08-16T02:40:22;6.27;;;3.77;;
11298;SDS011;5705;49.006;12.100;2022-08-16T02:42:52;4.13;;;3.73;;
11298;SDS011;5705;49.006;12.100;2022-08-16T02:45:21;3.40;;;3.13;;
11298;SDS011;5705;49.006;12.100;2022-08-16T02:47:53;3.07;;;2.87;;
11298;SDS011;5705;49.006;12.100;2022-08-16T02:50:41;4.53;;;3.83;;
11298;SDS011;5705;49.006;12.100;2022-08-16T02:53:28;2.90;;;2.70;;
11298;SDS011;5705;49.006;12.100;2022-08-16T02:55:56;3.10;;;2.90;;
11298;SDS011;5705;49.006;12.100;2022-08-16T02:58:26;3.60;;;3.30;;
11298;SDS011;5705;49.006;12.100;2022-08-16T03:00:55;3.07;;;2.83;;
11298;SDS011;5705;49.006;12.100;2022-08-16T03:03:23;4.90;;;4.40;;
11298;SDS011;5705;49.006;12.100;2022-08-16T03:06:12;5.13;;;3.67;;
11298;SDS011;5705;49.006;12.100;2022-08-16T03:09:02;3.23;;;2.93;;
11298;SDS011;5705;49.006;12.100;2022-08-16T03:11:30;5.13;;;4.63;;
11298;SDS011;5705;49.006;12.100;2022-08-16T03:14:02;4.37;;;3.93;;
11298;SDS011;5705;49.006;12.100;2022-08-16T03:16:33;3.20;;;2.90;;
11298;SDS011;5705;49.006;12.100;2022-08-16T03:19:21;4.93;;;3.20;;
11298;SDS011;5705;49.006;12.100;2022-08-16T03:21:49;4.63;;;3.60;;
11298;SDS011;5705;49.006;12.100;2022-08-16T03:24:17;4.77;;;2.90;;
11298;SDS011;5705;49.006;12.100;2022-08-16T03:26:56;3.13;;;2.83;;
11298;SDS011;5705;49.006;12.100;2022-08-16T03:29:30;3.33;;;3.07;;
11298;SDS011;5705;49.006;12.100;2022-08-16T03:31:59;3.20;;;2.90;;
11298;SDS011;5705;49.006;12.100;2022-08-16T03:34:29;3.00;;;2.80;;
11298;SDS011;5705;49.006;12.100;2022-08-16T03:36:58;2.70;;;2.50;;
11298;SDS011;5705;49.006;12.100;2022-08-16T03:39:27;3.27;;;2.97;;
11298;SDS011;5705;49.006;12.100;2022-08-16T03:41:56;3.10;;;2.90;;
11298;SDS011;5705;49.006;12.100;2022-08-16T03:44:25;4.87;;;2.90;;
11298;SDS011;5705;49.006;12.100;2022-08-16T03:47:13;3.37;;;3.07;;
11298;SDS011;5705;49.006;12.100;2022-08-16T03:49:44;3.30;;;3.10;;
11298;SDS011;5705;49.006;12.100;2022-08-16T03:52:17;3.70;;;3.30;;
11298;SDS011;5705;49.006;12.100;2022-08-16T03:54:45;3.30;;;3.03;;
11298;SDS011;5705;49.006;12.100;2022-08-16T03:57:25;2.87;;;2.60;;
11298;SDS011;5705;49.006;12.100;2022-08-16T04:00:01;3.23;;;2.93;;
11298;SDS011;5705;49.006;12.100;2022-08-16T04:02:59;4.20;;;3.80;;
11298;SDS011;5705;49.006;12.100;2022-08-16T04:05:34;7.07;;;6.37;;
11298;SDS011;5705;49.006;12.100;2022-08-16T04:08:03;6.40;;;5.80;;
11298;SDS011;5705;49.006;12.100;2022-08-16T04:10:49;4.83;;;4.43;;
11298;SDS011;5705;49.006;12.100;2022-08-16T04:13:18;6.43;;;4.73;;
11298;SDS011;5705;49.006;12.100;2022-08-16T04:16:06;5.90;;;5.40;;
11298;SDS011;5705;49.006;12.100;2022-08-16T04:18:53;4.57;;;4.07;;
11298;SDS011;5705;49.006;12.100;2022-08-16T04:21:29;6.40;;;5.70;;
11298;SDS011;5705;49.006;12.100;2022-08-16T04:23:58;5.70;;;5.20;;
11298;SDS011;5705;49.006;12.100;2022-08-16T04:26:25;6.43;;;4.87;;
11298;SDS011;5705;49.006;12.100;2022-08-16T04:28:57;4.57;;;4.17;;
11298;SDS011;5705;49.006;12.100;2022-08-16T04:31:45;4.57;;;4.13;;
11298;SDS011;5705;49.006;12.100;2022-08-16T04:34:27;6.77;;;6.07;;
11298;SDS011;5705;49.006;12.100;2022-08-16T04:36:55;5.90;;;5.33;;
11298;SDS011;5705;49.006;12.100;2022-08-16T04:39:27;6.50;;;3.97;;
11298;SDS011;5705;49.006;12.100;2022-08-16T04:42:12;5.07;;;3.90;;
11298;SDS011;5705;49.006;12.100;2022-08-16T04:44:40;5.20;;;4.43;;
11298;SDS011;5705;49.006;12.100;2022-08-16T04:47:21;4.47;;;3.17;;
11298;SDS011;5705;49.006;12.100;2022-08-16T04:49:51;4.07;;;3.60;;
11298;SDS011;5705;49.006;12.100;2022-08-16T04:52:19;3.47;;;3.17;;
11298;SDS011;5705;49.006;12.100;2022-08-16T04:54:59;3.90;;;3.37;;
11298;SDS011;5705;49.006;12.100;2022-08-16T04:57:28;3.80;;;3.43;;
11298;SDS011;5705;49.006;12.100;2022-08-16T04:59:56;4.03;;;3.63;;
11298;SDS011;5705;49.006;12.100;2022-08-16T05:02:44;3.33;;;3.00;;
11298;SDS011;5705;49.006;12.100;2022-08-16T05:05:21;3.87;;;3.37;;
11298;SDS011;5705;49.006;12.100;2022-08-16T05:07:49;6.07;;;3.53;;
11298;SDS011;5705;49.006;12.100;2022-08-16T05:10:25;4.37;;;3.90;;
11298;SDS011;5705;49.006;12.100;2022-08-16T05:12:55;3.73;;;3.37;;
11298;SDS011;5705;49.006;12.100;2022-08-16T05:15:23;4.83;;;3.27;;
11298;SDS011;5705;49.006;12.100;2022-08-16T05:17:52;3.07;;;2.87;;
11298;SDS011;5705;49.006;12.100;2022-08-16T05:20:30;4.47;;;3.27;;
11298;SDS011;5705;49.006;12.100;2022-08-16T05:23:18;3.27;;;2.97;;
11298;SDS011;5705;49.006;12.100;2022-08-16T05:25:46;4.73;;;3.37;;
11298;SDS011;5705;49.006;12.100;2022-08-16T05:28:14;5.23;;;2.90;;
11298;SDS011;5705;49.006;12.100;2022-08-16T05:30:43;3.40;;;3.10;;
11298;SDS011;5705;49.006;12.100;2022-08-16T05:33:15;4.57;;;3.70;;
11298;SDS011;5705;49.006;12.100;2022-08-16T05:35:45;3.40;;;3.10;;
11298;SDS011;5705;49.006;12.100;2022-08-16T05:38:21;3.53;;;3.23;;
11298;SDS011;5705;49.006;12.100;2022-08-16T05:41:04;3.13;;;2.93;;
11298;SDS011;5705;49.006;12.100;2022-08-16T05:43:34;4.87;;;3.43;;
11298;SDS011;5705;49.006;12.100;2022-08-16T05:46:13;4.83;;;3.20;;
11298;SDS011;5705;49.006;12.100;2022-08-16T05:48:56;3.30;;;2.97;;
11298;SDS011;5705;49.006;12.100;2022-08-16T05:51:32;5.70;;;3.33;;
11298;SDS011;5705;49.006;12.100;2022-08-16T05:54:05;2.63;;;2.43;;
11298;SDS011;5705;49.006;12.100;2022-08-16T05:56:36;3.27;;;3.03;;
11298;SDS011;5705;49.006;12.100;2022-08-16T05:59:05;3.77;;;3.30;;
11298;SDS011;5705;49.006;12.100;2022-08-16T06:01:33;3.07;;;2.87;;
11298;SDS011;5705;49.006;12.100;2022-08-16T06:04:04;2.67;;;2.47;;
11298;SDS011;5705;49.006;12.100;2022-08-16T06:06:53;5.53;;;3.70;;
11298;SDS011;5705;49.006;12.100;2022-08-16T06:09:23;5.17;;;2.83;;
11298;SDS011;5705;49.006;12.100;2022-08-16T06:12:09;2.30;;;2.13;;
11298;SDS011;5705;49.006;12.100;2022-08-16T06:14:37;2.70;;;2.37;;
11298;SDS011;5705;49.006;12.100;2022-08-16T06:17:05;4.80;;;2.10;;
11298;SDS011;5705;49.006;12.100;2022-08-16T06:19:40;2.97;;;2.70;;
11298;SDS011;5705;49.006;12.100;2022-08-16T06:22:11;4.73;;;2.63;;
11298;SDS011;5705;49.006;12.100;2022-08-16T06:24:58;3.73;;;2.57;;
11298;SDS011;5705;49.006;12.100;2022-08-16T06:27:29;2.77;;;2.40;;
11298;SDS011;5705;49.006;12.100;2022-08-16T06:30:06;2.70;;;2.50;;
11298;SDS011;5705;49.006;12.100;2022-08-16T06:32:35;2.07;;;1.97;;
11298;SDS011;5705;49.006;12.100;2022-08-16T06:35:13;4.70;;;2.37;;
11298;SDS011;5705;49.006;12.100;2022-08-16T06:37:43;3.67;;;3.23;;
11298;SDS011;5705;49.006;12.100;2022-08-16T06:40:17;3.00;;;2.67;;
11298;SDS011;5705;49.006;12.100;2022-08-16T06:42:58;3.33;;;2.80;;
11298;SDS011;5705;49.006;12.100;2022-08-16T06:45:27;2.23;;;2.13;;
11298;SDS011;5705;49.006;12.100;2022-08-16T06:47:55;2.73;;;2.47;;
11298;SDS011;5705;49.006;12.100;2022-08-16T06:50:22;3.90;;;2.30;;
11298;SDS011;5705;49.006;12.100;2022-08-16T06:52:56;2.50;;;2.33;;
11298;SDS011;5705;49.006;12.100;2022-08-16T06:55:26;1.93;;;1.83;;
11298;SDS011;5705;49.006;12.100;2022-08-16T06:58:00;3.23;;;2.93;;
11298;SDS011;5705;49.006;12.100;2022-08-16T07:00:35;3.60;;;2.43;;
11298;SDS011;5705;49.006;12.100;2022-08-16T07:03:08;4.27;;;2.73;;
11298;SDS011;5705;49.006;12.100;2022-08-16T07:05:53;2.77;;;2.57;;
11298;SDS011;5705;49.006;12.100;2022-08-16T07:08:24;2.30;;;2.20;;
11298;SDS011;5705;49.006;12.100;2022-08-16T07:10:53;3.30;;;3.03;;
11298;SDS011;5705;49.006;12.100;2022-08-16T07:13:21;3.67;;;2.50;;
11298;SDS011;5705;49.006;12.100;2022-08-16T07:16:11;2.50;;;2.30;;
11298;SDS011;5705;49.006;12.100;2022-08-16T07:18:41;2.60;;;2.40;;
11298;SDS011;5705;49.006;12.100;2022-08-16T07:21:27;3.50;;;2.77;;
11298;SDS011;5705;49.006;12.100;2022-08-16T07:24:13;3.40;;;3.10;;
11298;SDS011;5705;49.006;12.100;2022-08-16T07:26:56;2.63;;;2.43;;
11298;SDS011;5705;49.006;12.100;2022-08-16T07:29:25;3.10;;;2.77;;
11298;SDS011;5705;49.006;12.100;2022-08-16T07:31:57;2.53;;;2.33;;
11298;SDS011;5705;49.006;12.100;2022-08-16T07:34:26;2.20;;;2.10;;
11298;SDS011;5705;49.006;12.100;2022-08-16T07:37:02;2.63;;;2.50;;
11298;SDS011;5705;49.006;12.100;2022-08-16T07:39:32;3.83;;;2.70;;
11298;SDS011;5705;49.006;12.100;2022-08-16T07:42:08;2.47;;;2.37;;
11298;SDS011;5705;49.006;12.100;2022-08-16T07:44:50;2.07;;;1.97;;
11298;SDS011;5705;49.006;12.100;2022-08-16T07:47:19;2.40;;;2.27;;
11298;SDS011;5705;49.006;12.100;2022-08-16T07:49:56;2.70;;;2.53;;
11298;SDS011;5705;49.006;12.100;2022-08-16T07:52:24;1.80;;;1.70;;
11298;SDS011;5705;49.006;12.100;2022-08-16T07:54:56;2.90;;;2.70;;
11298;SDS011;5705;49.006;12.100;2022-08-16T07:57:24;2.80;;;2.60;;
11298;SDS011;5705;49.006;12.100;2022-08-16T07:59:51;4.27;;;2.93;;
11298;SDS011;5705;49.006;12.100;2022-08-16T08:02:22;5.97;;;2.60;;
11298;SDS011;5705;49.006;12.100;2022-08-16T08:04:52;2.60;;;2.40;;
11298;SDS011;5705;49.006;12.100;2022-08-16T08:07:20;3.07;;;2.87;;
11298;SDS011;5705;49.006;12.100;2022-08-16T08:09:53;2.77;;;2.57;;
11298;SDS011;5705;49.006;12.100;2022-08-16T08:12:23;2.80;;;2.40;;
11298;SDS011;5705;49.006;12.100;2022-08-16T08:15:00;2.87;;;2.70;;
11298;SDS011;5705;49.006;12.100;2022-08-16T08:17:29;2.40;;;2.30;;
11298;SDS011;5705;49.006;12.100;2022-08-16T08:20:08;2.40;;;2.20;;
11298;SDS011;5705;49.006;12.100;2022-08-16T08:22:48;2.30;;;2.10;;
11298;SDS011;5705;49.006;12.100;2022-08-16T08:25:26;1.90;;;1.80;;
11298;SDS011;5705;49.006;12.100;2022-08-16T08:28:15;2.80;;;2.60;;
11298;SDS011;5705;49.006;12.100;2022-08-16T08:30:45;2.67;;;2.47;;
11298;SDS011;5705;49.006;12.100;2022-08-16T08:33:26;2.23;;;2.10;;
11298;SDS011;5705;49.006;12.100;2022-08-16T08:35:54;1.83;;;1.60;;
11298;SDS011;5705;49.006;12.100;2022-08-16T08:38:26;3.33;;;2.30;;
11298;SDS011;5705;49.006;12.100;2022-08-16T08:41:11;2.17;;;1.93;;
11298;SDS011;5705;49.006;12.100;2022-08-16T08:43:44;2.13;;;1.93;;
11298;SDS011;5705;49.006;12.100;2022-08-16T08:46:15;3.20;;;1.90;;
11298;SDS011;5705;49.006;12.100;2022-08-16T08:48:47;1.83;;;1.73;;
11298;SDS011;5705;49.006;12.100;2022-08-16T08:51:27;2.20;;;1.90;;
11298;SDS011;5705;49.006;12.100;2022-08-16T08:53:57;2.27;;;2.07;;
11298;SDS011;5705;49.006;12.100;2022-08-16T08:56:25;2.17;;;1.97;;
11298;SDS011;5705;49.006;12.100;2022-08-16T08:58:58;1.90;;;1.80;;
11298;SDS011;5705;49.006;12.100;2022-08-16T09:01:38;1.73;;;1.63;;
11298;SDS011;5705;49.006;12.100;2022-08-16T09:04:22;2.73;;;2.33;;
11298;SDS011;5705;49.006;12.100;2022-08-16T09:06:50;3.50;;;2.20;;
11298;SDS011;5705;49.006;12.100;2022-08-16T09:09:19;1.90;;;1.73;;
11298;SDS011;5705;49.006;12.100;2022-08-16T09:11:47;3.07;;;2.10;;
11298;SDS011;5705;49.006;12.100;2022-08-16T09:14:33;1.80;;;1.65;;
11298;SDS011;5705;49.006;12.100;2022-08-16T09:17:04;1.90;;;1.77;;
11298;SDS011;5705;49.006;12.100;2022-08-16T09:19:51;1.95;;;1.85;;
11298;SDS011;5705;49.006;12.100;2022-08-16T09:22:23;3.10;;;2.17;;
11298;SDS011;5705;49.006;12.100;2022-08-16T09:24:53;1.88;;;1.77;;
11298;SDS011;5705;49.006;12.100;2022-08-16T09:27:36;2.03;;;1.90;;
11298;SDS011;5705;49.006;12.100;2022-08-16T09:30:25;1.95;;;1.67;;
11298;SDS011;5705;49.006;12.100;2022-08-16T09:33:02;1.70;;;1.60;;
11298;SDS011;5705;49.006;12.100;2022-08-16T09:35:32;1.88;;;1.70;;
11298;SDS011;5705;49.006;12.100;2022-08-16T09:38:04;2.75;;;1.80;;
11298;SDS011;5705;49.006;12.100;2022-08-16T09:40:34;2.25;;;1.67;;
11298;SDS011;5705;49.006;12.100;2022-08-16T09:43:09;2.50;;;1.88;;
11298;SDS011;5705;49.006;12.100;2022-08-16T09:45:58;2.05;;;1.95;;
11298;SDS011;5705;49.006;12.100;2022-08-16T09:48:27;1.90;;;1.80;;
11298;SDS011;5705;49.006;12.100;2022-08-16T09:51:10;1.83;;;1.73;;
11298;SDS011;5705;49.006;12.100;2022-08-16T09:53:39;2.13;;;1.90;;
11298;SDS011;5705;49.006;12.100;2022-08-16T09:56:09;2.28;;;2.17;;
11298;SDS011;5705;49.006;12.100;2022-08-16T09:58:42;2.28;;;2.15;;
11298;SDS011;5705;49.006;12.100;2022-08-16T10:01:32;2.20;;;1.77;;
11298;SDS011;5705;49.006;12.100;2022-08-16T10:04:01;1.85;;;1.75;;
11298;SDS011;5705;49.006;12.100;2022-08-16T10:06:50;1.88;;;1.77;;
11298;SDS011;5705;49.006;12.100;2022-08-16T10:09:18;2.22;;;2.08;;
11298;SDS011;5705;49.006;12.100;2022-08-16T10:11:46;2.08;;;1.88;;
11298;SDS011;5705;49.006;12.100;2022-08-16T10:14:37;2.40;;;1.90;;
11298;SDS011;5705;49.006;12.100;2022-08-16T10:17:12;2.40;;;2.20;;
11298;SDS011;5705;49.006;12.100;2022-08-16T10:19:40;3.50;;;3.25;;
11298;SDS011;5705;49.006;12.100;2022-08-16T10:22:08;1.80;;;1.70;;
11298;SDS011;5705;49.006;12.100;2022-08-16T10:24:38;2.53;;;1.55;;
11298;SDS011;5705;49.006;12.100;2022-08-16T10:27:24;2.25;;;2.13;;
11298;SDS011;5705;49.006;12.100;2022-08-16T10:30:12;2.17;;;2.08;;
11298;SDS011;5705;49.006;12.100;2022-08-16T10:32:55;2.95;;;1.50;;
11298;SDS011;5705;49.006;12.100;2022-08-16T10:35:23;1.65;;;1.55;;
11298;SDS011;5705;49.006;12.100;2022-08-16T10:37:58;2.72;;;1.55;;
11298;SDS011;5705;49.006;12.100;2022-08-16T10:40:26;5.75;;;1.80;;
11298;SDS011;5705;49.006;12.100;2022-08-16T10:42:56;1.80;;;1.70;;
11298;SDS011;5705;49.006;12.100;2022-08-16T10:45:26;3.20;;;1.77;;
11298;SDS011;5705;49.006;12.100;2022-08-16T10:48:04;2.35;;;1.70;;
11298;SDS011;5705;49.006;12.100;2022-08-16T10:50:53;3.83;;;1.80;;
11298;SDS011;5705;49.006;12.100;2022-08-16T10:53:24;3.55;;;1.73;;
11298;SDS011;5705;49.006;12.100;2022-08-16T10:55:59;1.52;;;1.45;;
11298;SDS011;5705;49.006;12.100;2022-08-16T10:58:28;1.92;;;1.73;;
11298;SDS011;5705;49.006;12.100;2022-08-16T11:01:00;1.75;;;1.65;;
11298;SDS011;5705;49.006;12.100;2022-08-16T11:03:49;1.33;;;1.27;;
11298;SDS011;5705;49.006;12.100;2022-08-16T11:06:22;2.15;;;1.95;;
11298;SDS011;5705;49.006;12.100;2022-08-16T11:08:54;3.03;;;1.50;;
11298;SDS011;5705;49.006;12.100;2022-08-16T11:11:43;2.65;;;1.67;;
11298;SDS011;5705;49.006;12.100;2022-08-16T11:14:31;2.75;;;1.95;;
11298;SDS011;5705;49.006;12.100;2022-08-16T11:17:00;3.17;;;1.63;;
11298;SDS011;5705;49.006;12.100;2022-08-16T11:19:38;3.13;;;1.75;;
11298;SDS011;5705;49.006;12.100;2022-08-16T11:22:27;2.97;;;1.65;;
11298;SDS011;5705;49.006;12.100;2022-08-16T11:25:15;2.08;;;1.38;;
11298;SDS011;5705;49.006;12.100;2022-08-16T11:28:04;3.33;;;1.75;;
11298;SDS011;5705;49.006;12.100;2022-08-16T11:30:33;2.42;;;1.83;;
11298;SDS011;5705;49.006;12.100;2022-08-16T11:33:04;1.65;;;1.55;;
11298;SDS011;5705;49.006;12.100;2022-08-16T11:35:34;2.22;;;1.55;;
11298;SDS011;5705;49.006;12.100;2022-08-16T11:38:22;1.77;;;1.35;;
11298;SDS011;5705;49.006;12.100;2022-08-16T11:41:10;2.00;;;1.63;;
11298;SDS011;5705;49.006;12.100;2022-08-16T11:43:38;4.32;;;1.88;;
11298;SDS011;5705;49.006;12.100;2022-08-16T11:46:08;1.42;;;1.33;;
11298;SDS011;5705;49.006;12.100;2022-08-16T11:48:57;2.42;;;1.55;;
11298;SDS011;5705;49.006;12.100;2022-08-16T11:51:27;4.43;;;1.73;;
11298;SDS011;5705;49.006;12.100;2022-08-16T11:53:55;3.83;;;1.80;;
11298;SDS011;5705;49.006;12.100;2022-08-16T11:56:23;1.75;;;1.65;;
11298;SDS011;5705;49.006;12.100;2022-08-16T11:59:11;1.90;;;1.50;;
11298;SDS011;5705;49.006;12.100;2022-08-16T12:01:41;1.40;;;1.30;;
11298;SDS011;5705;49.006;12.100;2022-08-16T12:04:24;3.08;;;1.70;;
11298;SDS011;5705;49.006;12.100;2022-08-16T12:06:53;2.20;;;1.40;;
11298;SDS011;5705;49.006;12.100;2022-08-16T12:09:21;2.05;;;1.38;;
11298;SDS011;5705;49.006;12.100;2022-08-16T12:11:50;1.60;;;1.42;;
11298;SDS011;5705;49.006;12.100;2022-08-16T12:14:18;3.17;;;1.65;;
11298;SDS011;5705;49.006;12.100;2022-08-16T12:16:48;1.95;;;1.65;;
11298;SDS011;5705;49.006;12.100;2022-08-16T12:19:21;1.70;;;1.60;;
11298;SDS011;5705;49.006;12.100;2022-08-16T12:22:02;2.75;;;1.45;;
11298;SDS011;5705;49.006;12.100;2022-08-16T12:24:45;3.15;;;1.70;;
11298;SDS011;5705;49.006;12.100;2022-08-16T12:27:18;2.05;;;1.50;;
11298;SDS011;5705;49.006;12.100;2022-08-16T12:29:48;1.80;;;1.50;;
11298;SDS011;5705;49.006;12.100;2022-08-16T12:32:17;4.03;;;1.80;;
11298;SDS011;5705;49.006;12.100;2022-08-16T12:35:05;3.08;;;1.55;;
11298;SDS011;5705;49.006;12.100;2022-08-16T12:37:35;1.30;;;1.20;;
11298;SDS011;5705;49.006;12.100;2022-08-16T12:40:04;1.70;;;1.60;;
11298;SDS011;5705;49.006;12.100;2022-08-16T12:42:50;1.27;;;1.02;;
11298;SDS011;5705;49.006;12.100;2022-08-16T12:45:20;1.92;;;1.48;;
11298;SDS011;5705;49.006;12.100;2022-08-16T12:47:49;1.77;;;1.67;;
11298;SDS011;5705;49.006;12.100;2022-08-16T12:50:55;3.30;;;1.67;;
11298;SDS011;5705;49.006;12.100;2022-08-16T12:53:27;2.00;;;1.63;;
11298;SDS011;5705;49.006;12.100;2022-08-16T12:55:57;1.65;;;1.55;;
11298;SDS011;5705;49.006;12.100;2022-08-16T12:58:25;2.90;;;1.30;;
11298;SDS011;5705;49.006;12.100;2022-08-16T13:01:13;1.75;;;1.48;;
11298;SDS011;5705;49.006;12.100;2022-08-16T13:03:41;1.52;;;1.30;;
11298;SDS011;5705;49.006;12.100;2022-08-16T13:06:10;1.55;;;1.45;;
11298;SDS011;5705;49.006;12.100;2022-08-16T13:08:46;1.63;;;1.60;;
11298;SDS011;5705;49.006;12.100;2022-08-16T13:11:15;1.17;;;1.17;;
11298;SDS011;5705;49.006;12.100;2022-08-16T13:13:49;2.05;;;1.60;;
11298;SDS011;5705;49.006;12.100;2022-08-16T13:16:20;2.30;;;1.42;;
11298;SDS011;5705;49.006;12.100;2022-08-16T13:18:52;1.80;;;1.60;;
11298;SDS011;5705;49.006;12.100;2022-08-16T13:21:20;2.08;;;1.95;;
11298;SDS011;5705;49.006;12.100;2022-08-16T13:23:50;1.70;;;1.60;;
11298;SDS011;5705;49.006;12.100;2022-08-16T13:26:21;2.75;;;1.70;;
11298;SDS011;5705;49.006;12.100;2022-08-16T13:28:51;3.47;;;1.40;;
11298;SDS011;5705;49.006;12.100;2022-08-16T13:31:19;1.75;;;1.30;;
11298;SDS011;5705;49.006;12.100;2022-08-16T13:33:49;2.05;;;1.50;;
11298;SDS011;5705;49.006;12.100;2022-08-16T13:36:19;2.25;;;1.63;;
11298;SDS011;5705;49.006;12.100;2022-08-16T13:39:08;1.42;;;1.33;;
11298;SDS011;5705;49.006;12.100;2022-08-16T13:41:36;2.10;;;1.55;;
11298;SDS011;5705;49.006;12.100;2022-08-16T13:44:05;2.42;;;1.58;;
11298;SDS011;5705;49.006;12.100;2022-08-16T13:46:35;1.77;;;1.52;;
11298;SDS011;5705;49.006;12.100;2022-08-16T13:49:04;1.60;;;1.50;;
11298;SDS011;5705;49.006;12.100;2022-08-16T13:51:32;1.48;;;1.33;;
11298;SDS011;5705;49.006;12.100;2022-08-16T13:54:00;1.60;;;1.27;;
11298;SDS011;5705;49.006;12.100;2022-08-16T13:56:31;1.20;;;1.10;;
11298;SDS011;5705;49.006;12.100;2022-08-16T13:59:05;2.03;;;1.25;;
11298;SDS011;5705;49.006;12.100;2022-08-16T14:01:46;2.90;;;1.27;;
11298;SDS011;5705;49.006;12.100;2022-08-16T14:04:21;1.65;;;1.55;;
11298;SDS011;5705;49.006;12.100;2022-08-16T14:06:51;3.05;;;1.70;;
11298;SDS011;5705;49.006;12.100;2022-08-16T14:09:21;2.45;;;1.80;;
11298;SDS011;5705;49.006;12.100;2022-08-16T14:11:53;2.33;;;1.50;;
11298;SDS011;5705;49.006;12.100;2022-08-16T14:14:22;2.05;;;1.83;;
11298;SDS011;5705;49.006;12.100;2022-08-16T14:16:55;1.58;;;1.48;;
11298;SDS011;5705;49.006;12.100;2022-08-16T14:19:24;2.08;;;1.60;;
11298;SDS011;5705;49.006;12.100;2022-08-16T14:21:55;1.92;;;1.83;;
11298;SDS011;5705;49.006;12.100;2022-08-16T14:24:41;1.73;;;1.63;;
11298;SDS011;5705;49.006;12.100;2022-08-16T14:27:13;1.30;;;1.20;;
11298;SDS011;5705;49.006;12.100;2022-08-16T14:29:42;1.60;;;1.50;;
11298;SDS011;5705;49.006;12.100;2022-08-16T14:32:15;1.42;;;1.33;;
11298;SDS011;5705;49.006;12.100;2022-08-16T14:34:59;2.92;;;1.42;;
11298;SDS011;5705;49.006;12.100;2022-08-16T14:37:28;1.85;;;1.75;;
11298;SDS011;5705;49.006;12.100;2022-08-16T14:39:57;1.27;;;1.17;;
11298;SDS011;5705;49.006;12.100;2022-08-16T14:42:26;1.50;;;1.40;;
11298;SDS011;5705;49.006;12.100;2022-08-16T14:44:54;2.33;;;1.42;;
11298;SDS011;5705;49.006;12.100;2022-08-16T14:47:22;1.23;;;1.10;;
11298;SDS011;5705;49.006;12.100;2022-08-16T14:49:59;2.47;;;1.35;;
11298;SDS011;5705;49.006;12.100;2022-08-16T14:52:26;2.38;;;1.48;;
11298;SDS011;5705;49.006;12.100;2022-08-16T14:55:14;1.80;;;1.50;;
11298;SDS011;5705;49.006;12.100;2022-08-16T14:57:43;1.05;;;1.05;;
11298;SDS011;5705;49.006;12.100;2022-08-16T15:00:13;3.78;;;1.23;;
11298;SDS011;5705;49.006;12.100;2022-08-16T15:02:43;1.40;;;1.40;;
11298;SDS011;5705;49.006;12.100;2022-08-16T15:05:14;1.85;;;1.75;;
11298;SDS011;5705;49.006;12.100;2022-08-16T15:07:42;1.90;;;1.48;;
11298;SDS011;5705;49.006;12.100;2022-08-16T15:10:11;2.10;;;1.60;;
11298;SDS011;5705;49.006;12.100;2022-08-16T15:12:51;2.60;;;2.40;;
11298;SDS011;5705;49.006;12.100;2022-08-16T15:15:23;1.35;;;1.35;;
11298;SDS011;5705;49.006;12.100;2022-08-16T15:17:52;4.05;;;1.30;;
11298;SDS011;5705;49.006;12.100;2022-08-16T15:20:22;3.38;;;1.48;;
11298;SDS011;5705;49.006;12.100;2022-08-16T15:22:52;1.65;;;1.55;;
11298;SDS011;5705;49.006;12.100;2022-08-16T15:25:22;1.95;;;1.40;;
11298;SDS011;5705;49.006;12.100;2022-08-16T15:27:56;4.53;;;1.60;;
11298;SDS011;5705;49.006;12.100;2022-08-16T15:30:31;1.80;;;1.42;;